Time;durP1;ratioP1;P1;durP2;ratioP2;P2;SDS_P1;SDS_P2;PMS_P1;PMS_P2;Temp;Humidity;BMP_temperature;BMP_pressure;BME280_temperature;BME280_humidity;BME280_pressure;Samples;Min_cycle;Max_cycle;Signal;HPM_P1;HPM_P2
2022/07/25 00:01:18;;;;;;;14.30;13.00;;;25.10;91.50;;;;;;5095269;28;20567;-68
2022/07/25 00:03:45;;;;;;;14.43;13.23;;;25.00;91.40;;;;;;5094993;28;20526;-68
2022/07/25 00:06:12;;;;;;;13.50;12.30;;;25.10;91.20;;;;;;5094871;28;21021;-68
2022/07/25 00:08:39;;;;;;;13.20;12.00;;;25.00;91.30;;;;;;5095167;28;20475;-68
2022/07/25 00:11:06;;;;;;;14.37;13.17;;;25.00;91.40;;;;;;5095067;28;20506;-68
2022/07/25 00:13:33;;;;;;;14.50;13.20;;;24.80;91.60;;;;;;5094998;28;20479;-67
2022/07/25 00:16:00;;;;;;;13.37;12.27;;;24.60;91.80;;;;;;5094765;28;20926;-68
2022/07/25 00:18:28;;;;;;;12.23;11.23;;;24.60;91.80;;;;;;5095149;28;20482;-68
2022/07/25 00:20:55;;;;;;;13.67;12.57;;;24.60;91.70;;;;;;5094898;28;20447;-68
2022/07/25 00:23:22;;;;;;;12.90;11.70;;;24.60;91.70;;;;;;5094811;28;20482;-68
2022/07/25 00:25:49;;;;;;;13.77;12.57;;;24.60;91.70;;;;;;5094456;28;20557;-68
2022/07/25 00:28:16;;;;;;;13.50;12.30;;;24.60;91.90;;;;;;5094775;28;20482;-68
2022/07/25 00:30:43;;;;;;;15.07;13.77;;;24.60;92.10;;;;;;5094783;28;20474;-68
2022/07/25 00:33:10;;;;;;;14.23;13.03;;;24.70;92.20;;;;;;5094613;28;20442;-68
2022/07/25 00:35:38;;;;;;;15.40;14.10;;;24.70;92.30;;;;;;5094322;28;20961;-67
2022/07/25 00:38:05;;;;;;;13.30;12.20;;;24.70;92.60;;;;;;5094568;28;21002;-68
2022/07/25 00:40:32;;;;;;;13.30;12.20;;;24.60;92.70;;;;;;5094403;28;20929;-68
2022/07/25 00:42:59;;;;;;;14.80;13.33;;;24.60;92.80;;;;;;5094691;28;20479;-68
2022/07/25 00:45:26;;;;;;;13.63;12.43;;;24.50;93.00;;;;;;5094309;28;20561;-68
2022/07/25 00:47:53;;;;;;;13.97;12.83;;;24.40;93.10;;;;;;5094077;28;20482;-68
2022/07/25 00:50:20;;;;;;;14.83;13.63;;;24.40;93.30;;;;;;5094399;28;20534;-68
2022/07/25 00:52:48;;;;;;;14.40;13.20;;;24.30;93.40;;;;;;5094284;28;20443;-68
2022/07/25 00:55:15;;;;;;;15.03;13.73;;;24.30;93.30;;;;;;5094103;28;20505;-68
2022/07/25 00:57:42;;;;;;;13.03;11.90;;;24.40;93.10;;;;;;5094366;28;20483;-68
2022/07/25 01:00:13;;;;;;;13.70;12.50;;;24.40;93.00;;;;;;5094188;28;20483;-68
2022/07/25 01:02:40;;;;;;;13.43;12.23;;;24.30;92.80;;;;;;5094238;28;20781;-68
2022/07/25 01:05:08;;;;;;;13.40;12.30;;;24.30;92.90;;;;;;5093916;28;20516;-68
2022/07/25 01:07:36;;;;;;;14.03;12.80;;;24.30;92.80;;;;;;5093873;28;20517;-68
2022/07/25 01:10:06;;;;;;;13.50;12.40;;;24.30;93.20;;;;;;5093881;28;20479;-68
2022/07/25 01:12:43;;;;;;;13.33;12.03;;;24.30;93.20;;;;;;5093712;28;20534;-67
2022/07/25 01:15:10;;;;;;;15.03;13.43;;;24.30;93.10;;;;;;5093597;28;20962;-68
2022/07/25 01:17:37;;;;;;;12.73;11.43;;;24.40;93.20;;;;;;5093940;28;20475;-68
2022/07/25 01:20:05;;;;;;;13.67;12.47;;;24.30;93.40;;;;;;5093955;28;20481;-67
2022/07/25 01:22:33;;;;;;;14.37;13.17;;;24.30;93.50;;;;;;5093921;28;20445;-67
2022/07/25 01:25:00;;;;;;;13.77;12.57;;;24.20;93.50;;;;;;5093409;28;20541;-68
2022/07/25 01:27:27;;;;;;;14.27;12.87;;;24.10;94.00;;;;;;5093746;28;20891;-68
2022/07/25 01:29:54;;;;;;;13.60;12.40;;;24.10;94.10;;;;;;5093869;28;20448;-68
2022/07/25 01:32:20;;;;;;;12.67;11.47;;;24.10;94.30;;;;;;5093632;28;20533;-68
2022/07/25 01:34:47;;;;;;;14.30;13.10;;;24.10;94.10;;;;;;5093310;28;20501;-68
2022/07/25 01:37:14;;;;;;;15.37;13.97;;;24.10;94.40;;;;;;5093682;28;20978;-68
2022/07/25 01:39:42;;;;;;;13.90;12.70;;;23.90;94.80;;;;;;5093670;28;20485;-68
2022/07/25 01:42:09;;;;;;;14.57;13.27;;;23.80;95.10;;;;;;5094307;28;20494;-68
2022/07/25 01:44:36;;;;;;;14.63;13.40;;;23.80;95.10;;;;;;5093597;28;20505;-68
2022/07/25 01:47:03;;;;;;;14.60;13.20;;;23.80;95.20;;;;;;5093771;28;20476;-67
2022/07/25 01:49:30;;;;;;;14.90;13.60;;;23.80;95.40;;;;;;5093649;28;20473;-67
2022/07/25 01:51:57;;;;;;;13.60;12.30;;;23.70;95.70;;;;;;5093389;28;20518;-68
2022/07/25 01:54:24;;;;;;;14.07;12.80;;;23.60;95.80;;;;;;5096857;28;20520;-67
2022/07/25 01:56:53;;;;;;;14.43;13.17;;;23.60;96.10;;;;;;5097772;28;20469;-68
2022/07/25 01:59:20;;;;;;;14.33;13.03;;;23.60;96.10;;;;;;5097736;28;20466;-67
2022/07/25 02:01:46;;;;;;;13.63;12.43;;;23.60;96.20;;;;;;5097442;28;21027;-68
2022/07/25 02:04:13;;;;;;;14.77;13.37;;;23.50;96.20;;;;;;5097547;28;20893;-68
2022/07/25 02:06:41;;;;;;;13.10;12.00;;;23.50;96.30;;;;;;5097572;28;20510;-68
2022/07/25 02:09:08;;;;;;;14.67;13.37;;;23.50;96.40;;;;;;5097464;28;20441;-67
2022/07/25 02:11:35;;;;;;;14.50;13.10;;;23.50;96.40;;;;;;5097438;28;20562;-68
2022/07/25 02:14:04;;;;;;;14.07;12.87;;;23.50;96.50;;;;;;5097182;28;20465;-68
2022/07/25 02:16:30;;;;;;;14.10;12.70;;;23.50;96.60;;;;;;5097339;28;20473;-68
2022/07/25 02:18:57;;;;;;;14.20;12.90;;;23.50;96.50;;;;;;5097299;28;20472;-68
2022/07/25 02:21:25;;;;;;;14.77;13.37;;;23.50;96.60;;;;;;5097189;28;20455;-68
2022/07/25 02:23:51;;;;;;;13.23;12.10;;;23.50;96.70;;;;;;5097115;28;20465;-68
2022/07/25 02:26:18;;;;;;;15.50;14.10;;;23.50;96.70;;;;;;5097245;28;20477;-68
2022/07/25 02:28:45;;;;;;;14.60;13.30;;;23.50;96.90;;;;;;5096829;28;20475;-68
2022/07/25 02:31:13;;;;;;;15.47;13.83;;;23.50;96.80;;;;;;5097068;28;20531;-67
2022/07/25 02:33:40;;;;;;;14.97;13.67;;;23.40;97.20;;;;;;5096942;28;20899;-69
2022/07/25 02:36:08;;;;;;;15.20;13.80;;;23.50;97.50;;;;;;5097015;28;20477;-67
2022/07/25 02:38:35;;;;;;;13.63;12.43;;;23.50;97.40;;;;;;5097018;28;20440;-67
2022/07/25 02:41:02;;;;;;;14.67;13.37;;;23.40;97.60;;;;;;5096822;28;20969;-68
2022/07/25 02:43:29;;;;;;;14.77;13.47;;;23.20;97.90;;;;;;5096963;28;20805;-68
2022/07/25 02:45:56;;;;;;;14.50;13.10;;;23.20;98.10;;;;;;5096655;28;20527;-68
2022/07/25 02:48:24;;;;;;;13.83;12.60;;;23.20;98.20;;;;;;5096806;28;20989;-67
2022/07/25 02:50:51;;;;;;;13.80;12.60;;;23.20;98.00;;;;;;5096459;28;20474;-68
2022/07/25 02:53:18;;;;;;;14.67;13.37;;;23.20;97.80;;;;;;5096476;28;20479;-67
2022/07/25 02:55:45;;;;;;;14.63;13.33;;;23.20;97.90;;;;;;5096631;28;20550;-67
2022/07/25 02:58:13;;;;;;;14.37;13.03;;;23.30;97.90;;;;;;5096586;28;20468;-68
2022/07/25 03:00:40;;;;;;;13.90;12.60;;;23.30;98.00;;;;;;5096642;28;20893;-68
2022/07/25 03:03:07;;;;;;;14.77;13.37;;;23.20;98.10;;;;;;5096400;28;20440;-67
2022/07/25 03:05:35;;;;;;;13.67;12.47;;;23.20;97.80;;;;;;5096063;28;20500;-68
2022/07/25 03:08:02;;;;;;;14.13;12.73;;;23.30;98.00;;;;;;5096328;28;20898;-68
2022/07/25 03:10:30;;;;;;;14.33;13.13;;;23.20;98.00;;;;;;5096343;28;20478;-67
2022/07/25 03:12:56;;;;;;;14.07;12.77;;;23.20;98.00;;;;;;5096112;28;20440;-68
2022/07/25 03:15:23;;;;;;;14.97;13.50;;;23.20;98.00;;;;;;5095783;28;20491;-68
2022/07/25 03:17:50;;;;;;;13.87;12.57;;;23.20;97.90;;;;;;5096105;28;20524;-68
2022/07/25 03:20:17;;;;;;;14.23;12.93;;;23.10;98.10;;;;;;5096160;28;20518;-68
2022/07/25 03:22:45;;;;;;;13.60;12.40;;;23.10;98.20;;;;;;5096358;28;20444;-68
2022/07/25 03:25:12;;;;;;;14.37;13.07;;;23.20;97.90;;;;;;5095834;28;20461;-67
2022/07/25 03:27:39;;;;;;;14.10;12.90;;;23.20;97.80;;;;;;5095961;28;20556;-68
2022/07/25 03:30:07;;;;;;;14.73;13.13;;;23.10;97.90;;;;;;5095960;28;20476;-68
2022/07/25 03:32:34;;;;;;;13.60;12.40;;;23.10;98.30;;;;;;5096017;28;20480;-68
2022/07/25 03:35:01;;;;;;;13.73;12.53;;;23.20;98.30;;;;;;5095616;28;20507;-68
2022/07/25 03:37:28;;;;;;;14.10;12.70;;;23.20;98.10;;;;;;5095620;28;20934;-68
2022/07/25 03:39:56;;;;;;;13.97;12.77;;;23.20;98.10;;;;;;5095694;28;20468;-68
2022/07/25 03:42:23;;;;;;;13.93;12.73;;;23.20;98.00;;;;;;5096028;28;20838;-68
2022/07/25 03:44:50;;;;;;;14.10;12.80;;;23.10;97.80;;;;;;5095236;28;20551;-68
2022/07/25 03:47:17;;;;;;;13.87;12.57;;;23.20;98.30;;;;;;5095593;28;20484;-67
2022/07/25 03:49:44;;;;;;;14.93;13.63;;;23.10;98.50;;;;;;5095601;28;20523;-67
2022/07/25 03:52:11;;;;;;;14.23;12.93;;;23.10;98.40;;;;;;5095532;28;20531;-67
2022/07/25 03:54:38;;;;;;;14.70;13.40;;;23.10;98.80;;;;;;5095188;28;20569;-69
2022/07/25 03:57:06;;;;;;;14.23;12.93;;;23.00;98.50;;;;;;5095467;28;20527;-67
2022/07/25 03:59:33;;;;;;;13.80;12.60;;;23.00;98.50;;;;;;5095347;28;20884;-67
2022/07/25 04:02:00;;;;;;;14.57;13.27;;;22.90;98.60;;;;;;5095104;28;20527;-68
2022/07/25 04:04:27;;;;;;;14.07;12.77;;;22.90;98.70;;;;;;5095077;28;20647;-68
2022/07/25 04:06:54;;;;;;;14.70;13.30;;;22.80;99.00;;;;;;5095137;28;20508;-67
2022/07/25 04:09:21;;;;;;;14.47;13.03;;;22.80;98.90;;;;;;5095160;28;20519;-67
2022/07/25 04:11:47;;;;;;;14.20;12.90;;;22.90;99.00;;;;;;5095050;28;20441;-68
2022/07/25 04:14:16;;;;;;;13.90;12.70;;;22.80;99.50;;;;;;5094877;28;20502;-68
2022/07/25 04:16:42;;;;;;;13.50;12.30;;;22.90;99.10;;;;;;5094217;28;20531;-67
2022/07/25 04:19:09;;;;;;;13.50;12.30;;;22.90;99.00;;;;;;5094834;28;20535;-67
2022/07/25 04:21:36;;;;;;;13.90;12.67;;;22.80;99.10;;;;;;5095064;28;20523;-68
2022/07/25 04:24:03;;;;;;;13.93;12.60;;;22.90;99.60;;;;;;5094676;28;20892;-68
2022/07/25 04:26:30;;;;;;;13.43;12.13;;;22.90;99.30;;;;;;5094787;28;20524;-67
2022/07/25 04:28:57;;;;;;;13.43;12.23;;;22.90;99.10;;;;;;5094684;28;20887;-67
2022/07/25 04:31:26;;;;;;;14.00;12.57;;;22.90;99.20;;;;;;5094534;28;20476;-68
2022/07/25 04:33:53;;;;;;;13.33;12.13;;;22.90;99.70;;;;;;5094312;28;20547;-68
2022/07/25 04:36:20;;;;;;;13.87;12.57;;;22.80;99.50;;;;;;5094664;28;21010;-68
2022/07/25 04:38:46;;;;;;;13.97;12.67;;;22.80;99.60;;;;;;5095115;28;20475;-67
2022/07/25 04:41:13;;;;;;;13.90;12.53;;;22.80;99.50;;;;;;5094528;28;20454;-68
2022/07/25 04:43:40;;;;;;;14.40;12.37;;;22.70;99.50;;;;;;5094283;28;20496;-67
2022/07/25 04:46:07;;;;;;;14.03;12.83;;;22.60;99.90;;;;;;5094677;28;20526;-67
2022/07/25 04:48:35;;;;;;;14.83;13.33;;;22.60;99.90;;;;;;5094385;28;20563;-68
2022/07/25 04:51:02;;;;;;;14.87;13.37;;;22.70;99.90;;;;;;5094321;28;20531;-67
2022/07/25 04:53:29;;;;;;;13.93;12.67;;;22.80;99.90;;;;;;5094162;28;20554;-67
2022/07/25 04:55:56;;;;;;;13.93;12.60;;;22.90;99.90;;;;;;5094229;28;20520;-68
2022/07/25 04:58:23;;;;;;;13.90;12.70;;;22.90;99.90;;;;;;5094314;28;20459;-68
2022/07/25 05:00:50;;;;;;;14.47;13.03;;;22.90;99.90;;;;;;5094235;28;20869;-67
2022/07/25 05:03:17;;;;;;;14.37;12.97;;;23.00;99.90;;;;;;5094188;28;20452;-68
2022/07/25 05:05:45;;;;;;;14.37;13.07;;;23.00;99.90;;;;;;5094317;28;20526;-68
2022/07/25 05:08:12;;;;;;;14.30;13.00;;;23.00;99.90;;;;;;5093959;28;20570;-68
2022/07/25 05:10:39;;;;;;;14.90;13.50;;;23.00;99.90;;;;;;5094097;28;20524;-67
2022/07/25 05:13:06;;;;;;;14.97;13.57;;;23.10;99.90;;;;;;5094080;28;21006;-67
2022/07/25 05:15:32;;;;;;;14.47;13.17;;;22.90;99.90;;;;;;5093796;28;20884;-68
2022/07/25 05:17:59;;;;;;;15.23;13.83;;;22.80;99.90;;;;;;5094009;28;20862;-67
2022/07/25 05:20:26;;;;;;;15.27;13.77;;;22.70;99.90;;;;;;5093752;28;20483;-68
2022/07/25 05:22:55;;;;;;;14.27;12.90;;;22.60;99.90;;;;;;5093908;28;20523;-67
2022/07/25 05:25:22;;;;;;;14.33;13.13;;;22.70;99.90;;;;;;5093666;28;20547;-67
2022/07/25 05:27:48;;;;;;;14.73;13.43;;;22.70;99.90;;;;;;5092669;28;20564;-67
2022/07/25 05:30:15;;;;;;;15.53;14.10;;;22.90;99.90;;;;;;5093736;28;20540;-68
2022/07/25 05:32:42;;;;;;;17.03;14.50;;;22.90;99.90;;;;;;5093904;28;20464;-67
2022/07/25 05:35:10;;;;;;;14.60;13.27;;;23.00;99.90;;;;;;5093343;28;20560;-67
2022/07/25 05:37:37;;;;;;;15.33;13.97;;;23.10;99.90;;;;;;5093797;28;20520;-67
2022/07/25 05:40:07;;;;;;;15.50;14.10;;;23.20;99.90;;;;;;5093789;28;20469;-67
2022/07/25 05:42:34;;;;;;;15.27;13.87;;;23.20;99.90;;;;;;5093765;28;20467;-67
2022/07/25 05:45:01;;;;;;;15.27;13.90;;;23.30;99.90;;;;;;5093586;28;20557;-68
2022/07/25 05:47:28;;;;;;;16.20;14.80;;;23.30;99.90;;;;;;5093605;28;20569;-67
2022/07/25 05:49:55;;;;;;;15.93;14.37;;;23.30;99.90;;;;;;5093567;28;20547;-68
2022/07/25 05:52:22;;;;;;;17.00;15.33;;;23.20;99.90;;;;;;5093564;28;20520;-68
2022/07/25 05:54:49;;;;;;;17.23;15.63;;;23.40;99.90;;;;;;5093389;28;20477;-67
2022/07/25 05:57:17;;;;;;;16.13;14.43;;;23.30;99.90;;;;;;5093799;28;20494;-68
2022/07/25 05:59:44;;;;;;;18.03;16.27;;;23.40;99.90;;;;;;5093708;28;20531;-68
2022/07/25 06:02:11;;;;;;;17.97;16.17;;;23.50;99.90;;;;;;5093529;28;20497;-67
2022/07/25 06:04:38;;;;;;;16.67;15.10;;;23.60;99.90;;;;;;5093247;28;20464;-68
2022/07/25 06:07:04;;;;;;;16.50;15.00;;;23.60;99.90;;;;;;5093497;28;20470;-68
2022/07/25 06:09:31;;;;;;;17.40;15.60;;;23.80;99.90;;;;;;5093541;28;20573;-67
2022/07/25 06:11:58;;;;;;;18.07;16.07;;;23.80;99.90;;;;;;5093432;28;20492;-68
2022/07/25 06:14:26;;;;;;;17.20;15.50;;;23.80;99.90;;;;;;5093153;28;20548;-68
2022/07/25 06:16:54;;;;;;;18.30;16.50;;;23.90;99.90;;;;;;5093369;28;20853;-67
2022/07/25 06:19:21;;;;;;;17.33;15.73;;;23.80;99.90;;;;;;5093376;28;20525;-67
2022/07/25 06:21:47;;;;;;;17.97;16.07;;;23.80;99.90;;;;;;5093316;28;20470;-68
2022/07/25 06:24:14;;;;;;;16.90;15.20;;;23.70;99.90;;;;;;5092972;28;20472;-67
2022/07/25 06:26:41;;;;;;;17.10;15.50;;;23.70;99.90;;;;;;5093498;28;20530;-67
2022/07/25 06:29:08;;;;;;;15.70;14.40;;;23.80;99.90;;;;;;5093166;28;20469;-68
2022/07/25 06:31:36;;;;;;;16.83;15.33;;;23.80;99.90;;;;;;5093211;28;20526;-68
2022/07/25 06:34:03;;;;;;;16.23;14.73;;;23.80;99.90;;;;;;5093208;28;20498;-68
2022/07/25 06:36:30;;;;;;;15.10;13.70;;;23.80;99.90;;;;;;5093048;28;20534;-67
2022/07/25 06:38:57;;;;;;;15.40;14.03;;;24.00;99.90;;;;;;5094126;28;20479;-67
2022/07/25 06:41:24;;;;;;;15.37;13.90;;;24.10;99.90;;;;;;5096912;28;20616;-68
2022/07/25 06:43:50;;;;;;;15.57;14.03;;;24.20;99.90;;;;;;5096535;28;20562;-68
2022/07/25 06:46:17;;;;;;;15.57;14.07;;;24.20;99.90;;;;;;5096875;28;20538;-68
2022/07/25 06:48:46;;;;;;;15.60;14.20;;;24.30;99.90;;;;;;5096701;28;20478;-68
2022/07/25 06:51:12;;;;;;;15.30;13.90;;;24.40;99.90;;;;;;5096719;28;20537;-67
2022/07/25 06:53:39;;;;;;;15.90;14.50;;;24.50;99.90;;;;;;5096463;28;20489;-68
2022/07/25 06:56:07;;;;;;;16.27;14.67;;;24.60;99.90;;;;;;5096617;28;20534;-67
2022/07/25 06:58:33;;;;;;;15.20;13.90;;;24.60;99.90;;;;;;5096572;28;20518;-67
2022/07/25 07:01:01;;;;;;;15.20;13.80;;;24.60;99.90;;;;;;5096602;28;20475;-67
2022/07/25 07:03:27;;;;;;;15.17;13.77;;;24.70;99.90;;;;;;5096420;28;20444;-68
2022/07/25 07:05:56;;;;;;;16.37;14.87;;;24.90;99.90;;;;;;5096330;28;20530;-68
2022/07/25 07:08:23;;;;;;;15.57;14.17;;;25.00;99.90;;;;;;5096346;28;20507;-68
2022/07/25 07:10:50;;;;;;;15.50;14.10;;;25.10;99.90;;;;;;5096334;28;20536;-68
2022/07/25 07:13:18;;;;;;;15.10;13.50;;;25.30;99.90;;;;;;5096242;28;20498;-68
2022/07/25 07:15:48;;;;;;;15.00;13.40;;;25.40;99.90;;;;;;5095932;28;20874;-68
2022/07/25 07:18:15;;;;;;;15.67;14.20;;;25.60;99.10;;;;;;5096227;28;20483;-68
2022/07/25 07:20:42;;;;;;;15.83;14.50;;;25.80;99.10;;;;;;5096375;28;20529;-68
2022/07/25 07:23:11;;;;;;;15.43;13.83;;;25.90;98.70;;;;;;5096115;28;20444;-67
2022/07/25 07:25:38;;;;;;;15.50;14.17;;;26.00;97.90;;;;;;5095832;28;20555;-68
2022/07/25 07:28:06;;;;;;;15.53;14.10;;;26.10;97.70;;;;;;5095928;28;20564;-68
2022/07/25 07:30:33;;;;;;;16.30;14.80;;;26.30;96.80;;;;;;5095802;28;20523;-68
2022/07/25 07:33:00;;;;;;;15.97;14.57;;;26.40;97.00;;;;;;5096004;28;20535;-68
2022/07/25 07:35:27;;;;;;;16.17;14.67;;;26.50;97.10;;;;;;5095535;28;21041;-68
2022/07/25 07:37:54;;;;;;;15.00;13.60;;;26.50;97.20;;;;;;5095600;28;20523;-68
2022/07/25 07:40:24;;;;;;;14.70;13.40;;;26.70;96.30;;;;;;5095745;28;20980;-68
2022/07/25 07:42:51;;;;;;;14.00;12.90;;;26.80;96.30;;;;;;5095670;28;20441;-68
2022/07/25 07:45:19;;;;;;;20.70;18.87;;;26.90;95.20;;;;;;5095286;28;20491;-68
2022/07/25 07:47:47;;;;;;;16.23;14.83;;;27.00;94.40;;;;;;5095850;28;20540;-68
2022/07/25 07:50:16;;;;;;;15.50;14.20;;;27.50;93.20;;;;;;5094691;28;20448;-68
2022/07/25 07:52:43;;;;;;;15.07;13.87;;;27.90;92.60;;;;;;5095305;28;20873;-68
2022/07/25 07:57:58;;;;;;;15.80;14.40;;;28.10;91.90;;;;;;5095375;28;20420;-68
2022/07/25 08:00:26;;;;;;;14.17;12.97;;;28.20;91.30;;;;;;5095200;28;20451;-68
2022/07/25 08:02:55;;;;;;;14.10;12.90;;;28.20;91.70;;;;;;5095110;28;20440;-68
2022/07/25 08:05:23;;;;;;;15.07;13.87;;;28.30;91.50;;;;;;5095008;28;20461;-68
2022/07/25 08:07:50;;;;;;;15.20;14.00;;;28.70;90.80;;;;;;5095189;28;20518;-68
2022/07/25 08:10:19;;;;;;;13.43;12.33;;;29.10;90.20;;;;;;5095215;28;20518;-68
2022/07/25 08:12:46;;;;;;;15.93;14.53;;;29.50;88.80;;;;;;5095125;28;20546;-68
2022/07/25 08:15:16;;;;;;;16.17;14.87;;;30.30;85.40;;;;;;5094893;28;20555;-68
2022/07/25 08:17:43;;;;;;;14.10;12.80;;;31.30;80.90;;;;;;5094995;28;20475;-68
2022/07/25 08:20:11;;;;;;;13.80;12.80;;;32.60;74.60;;;;;;5095036;28;20524;-68
2022/07/25 08:22:39;;;;;;;13.83;12.83;;;34.10;68.30;;;;;;5095212;28;20527;-68
2022/07/25 08:25:08;;;;;;;13.97;12.97;;;35.90;62.00;;;;;;5094892;28;20552;-69
2022/07/25 08:27:35;;;;;;;13.63;12.63;;;37.40;55.40;;;;;;5094748;28;20475;-69
2022/07/25 08:30:02;;;;;;;14.10;13.03;;;38.70;52.40;;;;;;5094737;28;20579;-68
2022/07/25 08:32:30;;;;;;;14.47;13.57;;;39.90;48.50;;;;;;5094755;28;21004;-69
2022/07/25 08:34:58;;;;;;;14.07;12.97;;;40.60;47.00;;;;;;5094514;28;20821;-69
2022/07/25 08:37:25;;;;;;;12.97;12.07;;;41.30;44.70;;;;;;5094946;28;20435;-69
2022/07/25 08:39:51;;;;;;;12.90;12.10;;;42.00;42.90;;;;;;5094682;28;20880;-69
2022/07/25 08:42:19;;;;;;;12.50;11.70;;;42.60;42.30;;;;;;5094504;28;20448;-69
2022/07/25 08:44:52;;;;;;;13.17;12.37;;;43.40;39.30;;;;;;5094163;28;20472;-69
2022/07/25 08:47:19;;;;;;;12.67;11.87;;;44.30;37.50;;;;;;5094361;28;20444;-69
2022/07/25 08:49:48;;;;;;;12.23;11.53;;;44.90;36.00;;;;;;5094178;28;20985;-69
2022/07/25 08:52:15;;;;;;;13.23;12.27;;;45.60;35.70;;;;;;5094548;28;20440;-67
2022/07/25 08:54:45;;;;;;;12.87;12.07;;;46.20;34.00;;;;;;5093904;28;20478;-67
2022/07/25 08:57:12;;;;;;;14.50;13.37;;;46.80;33.10;;;;;;5094250;28;20444;-67
2022/07/25 08:59:38;;;;;;;12.40;11.70;;;47.60;32.00;;;;;;5094432;28;20440;-66
2022/07/25 09:02:09;;;;;;;12.70;12.00;;;48.40;30.60;;;;;;5094026;28;20534;-67
2022/07/25 09:04:36;;;;;;;12.13;11.40;;;48.40;29.40;;;;;;5093751;28;20510;-67
2022/07/25 09:07:06;;;;;;;12.00;11.30;;;48.80;28.40;;;;;;5094156;28;20526;-67
2022/07/25 09:09:35;;;;;;;11.00;10.40;;;48.30;28.90;;;;;;5094005;28;20472;-66
2022/07/25 09:12:02;;;;;;;11.97;11.27;;;48.00;28.40;;;;;;5093788;28;20544;-67
2022/07/25 09:14:29;;;;;;;11.80;10.83;;;47.80;28.90;;;;;;5094055;28;20463;-67
2022/07/25 09:16:57;;;;;;;11.33;10.73;;;48.10;28.10;;;;;;5093826;28;21014;-67
2022/07/25 09:19:25;;;;;;;13.73;12.80;;;48.50;28.10;;;;;;5093964;28;20837;-66
2022/07/25 09:22:01;;;;;;;14.43;13.53;;;47.00;28.50;;;;;;5093957;28;20455;-67
2022/07/25 09:24:29;;;;;;;14.53;13.53;;;46.40;29.10;;;;;;5093534;28;20471;-67
2022/07/25 09:26:59;;;;;;;13.53;12.73;;;45.50;30.00;;;;;;5094337;28;20523;-67
2022/07/25 09:29:28;;;;;;;12.80;12.10;;;45.50;31.80;;;;;;5094059;28;20566;-67
2022/07/25 09:31:56;;;;;;;11.30;10.60;;;45.40;29.40;;;;;;5093819;28;20514;-66
2022/07/25 09:34:34;;;;;;;11.63;10.93;;;44.90;29.50;;;;;;5093572;28;20894;-67
2022/07/25 09:37:01;;;;;;;11.07;10.37;;;45.00;30.10;;;;;;5093758;28;20539;-67
2022/07/25 09:39:39;;;;;;;10.97;10.37;;;46.20;29.50;;;;;;5093785;28;20523;-67
2022/07/25 09:42:24;;;;;;;11.10;10.50;;;47.30;28.50;;;;;;5093809;28;20786;-67
2022/07/25 09:45:04;;;;;;;10.73;10.03;;;47.90;27.70;;;;;;5093384;28;20539;-67
2022/07/25 09:47:31;;;;;;;11.87;11.17;;;47.90;27.40;;;;;;5093853;28;20515;-67
2022/07/25 09:49:58;;;;;;;12.27;11.57;;;47.20;27.40;;;;;;5093573;28;20480;-66
2022/07/25 09:52:25;;;;;;;12.47;11.77;;;45.20;28.40;;;;;;5093623;28;20443;-66
2022/07/25 09:54:54;;;;;;;12.23;11.53;;;44.90;29.30;;;;;;5093048;28;20563;-66
2022/07/25 09:57:22;;;;;;;12.70;11.70;;;44.40;30.00;;;;;;5093558;28;20451;-67
2022/07/25 09:59:49;;;;;;;11.50;10.77;;;44.40;29.60;;;;;;5093467;28;20440;-67
2022/07/25 10:02:31;;;;;;;12.23;11.30;;;44.30;29.30;;;;;;5093275;28;20447;-67
2022/07/25 10:05:10;;;;;;;12.77;11.97;;;45.30;29.10;;;;;;5093317;28;20539;-67
2022/07/25 10:07:39;;;;;;;12.17;11.47;;;46.00;28.70;;;;;;5093502;28;20443;-67
2022/07/25 10:10:08;;;;;;;11.73;11.03;;;46.10;29.00;;;;;;5093314;28;20567;-67
2022/07/25 10:12:37;;;;;;;12.37;11.57;;;46.40;28.60;;;;;;5093488;28;20523;-67
2022/07/25 10:15:07;;;;;;;12.27;11.47;;;45.50;29.20;;;;;;5096209;28;20852;-67
2022/07/25 10:17:36;;;;;;;12.40;11.60;;;45.30;30.20;;;;;;5097432;28;20447;-67
2022/07/25 10:20:05;;;;;;;13.40;12.47;;;45.80;29.50;;;;;;5097450;28;20528;-67
2022/07/25 10:22:43;;;;;;;13.00;12.10;;;45.10;29.10;;;;;;5097552;28;20534;-69
2022/07/25 10:25:17;;;;;;;14.00;13.00;;;44.30;29.80;;;;;;5097273;28;20475;-68
2022/07/25 10:27:47;;;;;;;12.23;11.43;;;43.90;29.60;;;;;;5097190;28;20802;-68
2022/07/25 10:30:22;;;;;;;11.77;10.97;;;43.80;30.80;;;;;;5097048;28;20487;-68
2022/07/25 10:32:57;;;;;;;12.80;12.00;;;44.40;30.00;;;;;;5097354;28;20447;-68
2022/07/25 10:35:25;;;;;;;13.00;12.10;;;43.80;30.00;;;;;;5096589;28;20486;-68
2022/07/25 10:37:54;;;;;;;13.03;12.23;;;43.20;30.10;;;;;;5097183;28;20448;-68
2022/07/25 10:40:32;;;;;;;12.97;12.17;;;42.80;31.10;;;;;;5096994;28;20440;-68
2022/07/25 10:43:06;;;;;;;13.73;12.83;;;42.80;31.40;;;;;;5096968;28;20454;-68
2022/07/25 10:45:44;;;;;;;13.27;12.47;;;42.40;31.80;;;;;;5096438;28;20471;-68
2022/07/25 10:48:19;;;;;;;12.00;11.20;;;42.30;33.10;;;;;;5096568;28;21010;-68
2022/07/25 10:50:51;;;;;;;11.97;11.20;;;42.50;33.90;;;;;;5096754;28;21055;-68
2022/07/25 10:53:31;;;;;;;12.63;11.83;;;43.00;32.40;;;;;;5096573;28;20456;-68
2022/07/25 10:56:03;;;;;;;12.30;11.50;;;43.00;31.50;;;;;;5096522;28;20451;-67
2022/07/25 10:58:45;;;;;;;12.30;11.60;;;42.00;32.50;;;;;;5096393;28;20938;-68
2022/07/25 11:01:13;;;;;;;12.33;11.53;;;41.70;32.40;;;;;;5096581;28;20443;-68
2022/07/25 11:03:43;;;;;;;13.00;12.10;;;41.10;32.60;;;;;;5096289;28;20467;-67
2022/07/25 11:06:11;;;;;;;12.30;11.30;;;40.80;33.70;;;;;;5096453;28;20472;-67
2022/07/25 11:08:38;;;;;;;12.70;11.90;;;39.80;35.10;;;;;;5096333;28;21010;-68
2022/07/25 11:11:07;;;;;;;12.80;11.90;;;38.90;35.70;;;;;;5096063;28;20507;-68
2022/07/25 11:13:37;;;;;;;12.50;11.67;;;38.20;36.90;;;;;;5096011;28;20531;-68
2022/07/25 11:16:05;;;;;;;12.27;11.37;;;37.80;37.40;;;;;;5096071;28;20532;-67
2022/07/25 11:18:35;;;;;;;13.87;12.50;;;37.60;38.80;;;;;;5096082;28;20440;-67
2022/07/25 11:21:03;;;;;;;11.80;11.00;;;37.60;39.00;;;;;;5096147;28;20849;-67
2022/07/25 11:23:30;;;;;;;11.50;10.70;;;37.20;38.10;;;;;;5096038;28;20539;-67
2022/07/25 11:26:10;;;;;;;11.97;11.17;;;36.80;38.00;;;;;;5095776;28;20436;-67
2022/07/25 11:28:41;;;;;;;10.83;10.03;;;36.30;38.80;;;;;;5096098;28;20523;-67
2022/07/25 11:31:09;;;;;;;10.73;9.90;;;36.20;39.50;;;;;;5096226;28;20471;-67
2022/07/25 11:33:37;;;;;;;11.60;10.80;;;36.10;38.40;;;;;;5095799;28;20486;-67
2022/07/25 11:36:05;;;;;;;10.33;9.40;;;35.90;38.60;;;;;;5095661;28;20476;-67
2022/07/25 11:38:33;;;;;;;12.23;11.33;;;35.70;39.30;;;;;;5095828;28;20529;-67
2022/07/25 11:41:00;;;;;;;11.37;10.57;;;35.90;40.40;;;;;;5095637;28;20440;-67
2022/07/25 11:43:28;;;;;;;11.20;10.40;;;36.00;40.00;;;;;;5095641;28;20479;-67
2022/07/25 11:46:00;;;;;;;11.23;10.33;;;36.10;38.60;;;;;;5095462;28;21009;-67
2022/07/25 11:48:32;;;;;;;11.57;10.67;;;35.80;39.20;;;;;;5095691;28;20867;-67
2022/07/25 11:51:10;;;;;;;10.70;10.00;;;35.60;40.70;;;;;;5095516;28;20973;-67
2022/07/25 11:53:40;;;;;;;11.57;10.67;;;35.80;40.30;;;;;;5095274;28;20460;-67
2022/07/25 11:56:20;;;;;;;11.03;10.23;;;35.90;40.30;;;;;;5095147;28;20468;-67
2022/07/25 11:58:58;;;;;;;10.60;9.90;;;36.20;39.70;;;;;;5095211;28;20530;-67
2022/07/25 12:01:33;;;;;;;10.37;9.67;;;36.00;38.60;;;;;;5095463;28;20523;-67
2022/07/25 12:04:09;;;;;;;11.60;10.80;;;36.10;39.40;;;;;;5095037;28;20559;-67
2022/07/25 12:06:36;;;;;;;10.60;9.90;;;36.10;39.30;;;;;;5095342;28;20527;-67
2022/07/25 12:09:11;;;;;;;10.57;9.67;;;36.10;38.90;;;;;;5095628;28;20527;-67
2022/07/25 12:11:38;;;;;;;10.87;10.07;;;36.00;39.10;;;;;;5095243;28;20511;-68
2022/07/25 12:14:07;;;;;;;10.77;9.97;;;36.00;39.00;;;;;;5094837;28;20540;-67
2022/07/25 12:16:35;;;;;;;11.40;10.60;;;36.00;40.10;;;;;;5095073;28;20517;-67
2022/07/25 12:19:01;;;;;;;11.20;10.40;;;36.10;39.30;;;;;;5095003;28;20526;-67
2022/07/25 12:21:28;;;;;;;10.70;9.90;;;36.30;40.00;;;;;;5094897;28;20850;-67
2022/07/25 12:23:55;;;;;;;11.13;10.37;;;36.40;40.20;;;;;;5094669;28;20542;-67
2022/07/25 12:26:22;;;;;;;10.10;9.30;;;36.50;39.10;;;;;;5094944;28;20536;-67
2022/07/25 12:28:49;;;;;;;10.80;10.10;;;36.60;38.30;;;;;;5094862;28;20832;-67
2022/07/25 12:31:17;;;;;;;10.00;9.20;;;36.20;38.40;;;;;;5094676;28;20486;-67
2022/07/25 12:33:44;;;;;;;10.03;9.23;;;35.70;39.90;;;;;;5094519;28;20567;-68
2022/07/25 12:36:13;;;;;;;10.23;9.40;;;35.40;39.90;;;;;;5094250;28;20479;-67